sensor_id;sensor_type;location;lat;lon;timestamp;P1;durP1;ratioP1;P2;durP2;ratioP2
24631;SDS011;59977;48.782;9.190;2023-03-21T07:51:53;14.68;;;4.78;;
24631;SDS011;59977;48.782;9.190;2023-03-21T07:54:19;7.22;;;4.38;;
24631;SDS011;59977;48.782;9.190;2023-03-21T07:56:46;14.93;;;4.53;;
24631;SDS011;59977;48.782;9.190;2023-03-21T07:59:12;12.30;;;4.78;;
24631;SDS011;59977;48.782;9.190;2023-03-21T08:01:38;12.68;;;4.53;;
24631;SDS011;59977;48.782;9.190;2023-03-21T08:04:04;15.85;;;4.82;;
24631;SDS011;59977;48.782;9.190;2023-03-21T08:06:29;10.32;;;4.30;;
24631;SDS011;59977;48.782;9.190;2023-03-21T08:08:56;12.40;;;4.63;;
24631;SDS011;59977;48.782;9.190;2023-03-21T08:11:22;17.10;;;4.50;;
24631;SDS011;59977;48.782;9.190;2023-03-21T08:13:48;13.02;;;4.45;;
24631;SDS011;59977;48.782;9.190;2023-03-21T08:16:15;16.30;;;4.80;;
24631;SDS011;59977;48.782;9.190;2023-03-21T08:18:41;13.88;;;4.60;;
24631;SDS011;59977;48.782;9.190;2023-03-21T08:21:06;15.88;;;4.70;;
24631;SDS011;59977;48.782;9.190;2023-03-21T08:23:32;17.88;;;4.93;;
24631;SDS011;59977;48.782;9.190;2023-03-21T08:25:59;12.45;;;4.50;;
24631;SDS011;59977;48.782;9.190;2023-03-21T08:28:25;7.50;;;4.25;;
24631;SDS011;59977;48.782;9.190;2023-03-21T08:30:51;7.35;;;3.80;;
24631;SDS011;59977;48.782;9.190;2023-03-21T08:33:17;8.88;;;3.13;;
24631;SDS011;59977;48.782;9.190;2023-03-21T08:35:42;12.98;;;4.75;;
24631;SDS011;59977;48.782;9.190;2023-03-21T08:38:08;8.15;;;2.70;;
24631;SDS011;59977;48.782;9.190;2023-03-21T08:40:34;4.78;;;2.28;;
24631;SDS011;59977;48.782;9.190;2023-03-21T08:43:00;5.22;;;2.45;;
24631;SDS011;59977;48.782;9.190;2023-03-21T08:45:26;9.30;;;2.08;;
24631;SDS011;59977;48.782;9.190;2023-03-21T08:47:52;7.40;;;2.13;;
24631;SDS011;59977;48.782;9.190;2023-03-21T08:50:19;10.75;;;2.17;;
24631;SDS011;59977;48.782;9.190;2023-03-21T08:52:47;4.10;;;1.83;;
24631;SDS011;59977;48.782;9.190;2023-03-21T08:55:13;3.70;;;1.80;;
24631;SDS011;59977;48.782;9.190;2023-03-21T08:57:41;5.97;;;1.90;;
24631;SDS011;59977;48.782;9.190;2023-03-21T09:00:07;4.70;;;2.15;;
24631;SDS011;59977;48.782;9.190;2023-03-21T09:02:38;5.35;;;1.95;;
24631;SDS011;59977;48.782;9.190;2023-03-21T09:05:06;4.07;;;1.65;;
24631;SDS011;59977;48.782;9.190;2023-03-21T09:07:33;6.30;;;1.92;;
24631;SDS011;59977;48.782;9.190;2023-03-21T09:10:00;4.60;;;2.08;;
24631;SDS011;59977;48.782;9.190;2023-03-21T09:12:26;10.02;;;2.67;;
24631;SDS011;59977;48.782;9.190;2023-03-21T09:14:52;5.72;;;2.10;;
24631;SDS011;59977;48.782;9.190;2023-03-21T09:17:18;3.67;;;1.88;;
24631;SDS011;59977;48.782;9.190;2023-03-21T09:19:44;5.90;;;1.50;;
24631;SDS011;59977;48.782;9.190;2023-03-21T09:22:11;6.43;;;1.50;;
24631;SDS011;59977;48.782;9.190;2023-03-21T09:24:45;2.47;;;1.48;;
24631;SDS011;59977;48.782;9.190;2023-03-21T09:27:13;9.02;;;2.20;;
24631;SDS011;59977;48.782;9.190;2023-03-21T09:29:41;4.00;;;1.63;;
24631;SDS011;59977;48.782;9.190;2023-03-21T09:32:09;5.32;;;1.77;;
24631;SDS011;59977;48.782;9.190;2023-03-21T09:34:36;3.17;;;1.60;;
24631;SDS011;59977;48.782;9.190;2023-03-21T09:37:03;9.68;;;1.25;;
24631;SDS011;59977;48.782;9.190;2023-03-21T09:39:35;3.97;;;1.40;;
24631;SDS011;59977;48.782;9.190;2023-03-21T09:49:45;3.90;;;1.50;;
24631;SDS011;59977;48.782;9.190;2023-03-21T09:52:26;10.15;;;2.30;;
24631;SDS011;59977;48.782;9.190;2023-03-21T09:54:58;5.60;;;1.90;;
24631;SDS011;59977;48.782;9.190;2023-03-21T09:57:35;3.60;;;1.65;;
24631;SDS011;59977;48.782;9.190;2023-03-21T10:00:06;4.22;;;1.40;;
24631;SDS011;59977;48.782;9.190;2023-03-21T10:02:44;2.85;;;1.17;;
24631;SDS011;59977;48.782;9.190;2023-03-21T10:05:17;4.82;;;1.20;;
24631;SDS011;59977;48.782;9.190;2023-03-21T10:07:53;2.50;;;1.35;;
24631;SDS011;59977;48.782;9.190;2023-03-21T10:10:30;3.60;;;1.60;;
24631;SDS011;59977;48.782;9.190;2023-03-21T10:13:02;2.80;;;1.50;;
24631;SDS011;59977;48.782;9.190;2023-03-21T10:15:34;4.10;;;1.58;;
24631;SDS011;59977;48.782;9.190;2023-03-21T10:18:01;6.72;;;1.38;;
24631;SDS011;59977;48.782;9.190;2023-03-21T10:20:36;3.25;;;1.30;;
24631;SDS011;59977;48.782;9.190;2023-03-21T10:23:06;4.95;;;1.55;;
24631;SDS011;59977;48.782;9.190;2023-03-21T10:25:38;7.15;;;2.00;;
24631;SDS011;59977;48.782;9.190;2023-03-21T10:28:06;8.82;;;2.25;;
24631;SDS011;59977;48.782;9.190;2023-03-21T10:30:39;9.70;;;2.00;;
24631;SDS011;59977;48.782;9.190;2023-03-21T10:33:15;3.63;;;1.40;;
24631;SDS011;59977;48.782;9.190;2023-03-21T10:35:45;4.20;;;1.40;;
24631;SDS011;59977;48.782;9.190;2023-03-21T10:38:17;6.10;;;1.80;;
24631;SDS011;59977;48.782;9.190;2023-03-21T10:40:45;3.00;;;1.50;;
24631;SDS011;59977;48.782;9.190;2023-03-21T10:43:19;2.95;;;1.38;;
24631;SDS011;59977;48.782;9.190;2023-03-21T10:45:51;4.28;;;1.38;;
24631;SDS011;59977;48.782;9.190;2023-03-21T10:48:18;2.88;;;1.67;;
24631;SDS011;59977;48.782;9.190;2023-03-21T10:50:45;3.65;;;1.50;;
24631;SDS011;59977;48.782;9.190;2023-03-21T10:53:14;5.43;;;1.60;;
24631;SDS011;59977;48.782;9.190;2023-03-21T10:55:47;4.78;;;1.50;;
24631;SDS011;59977;48.782;9.190;2023-03-21T10:58:17;5.47;;;1.50;;
24631;SDS011;59977;48.782;9.190;2023-03-21T11:00:49;2.65;;;1.30;;
24631;SDS011;59977;48.782;9.190;2023-03-21T11:03:24;4.35;;;1.50;;
24631;SDS011;59977;48.782;9.190;2023-03-21T11:05:55;5.50;;;1.50;;
24631;SDS011;59977;48.782;9.190;2023-03-21T11:08:29;4.38;;;1.60;;
24631;SDS011;59977;48.782;9.190;2023-03-21T11:13:37;3.55;;;0.93;;
24631;SDS011;59977;48.782;9.190;2023-03-21T11:16:17;5.10;;;1.30;;
24631;SDS011;59977;48.782;9.190;2023-03-21T11:21:16;2.28;;;1.30;;
24631;SDS011;59977;48.782;9.190;2023-03-21T11:23:43;3.22;;;1.10;;
24631;SDS011;59977;48.782;9.190;2023-03-21T11:26:19;15.80;;;2.90;;
24631;SDS011;59977;48.782;9.190;2023-03-21T11:28:50;8.55;;;1.08;;
24631;SDS011;59977;48.782;9.190;2023-03-21T11:31:16;5.95;;;1.65;;
24631;SDS011;59977;48.782;9.190;2023-03-21T11:33:43;4.85;;;1.63;;
24631;SDS011;59977;48.782;9.190;2023-03-21T11:38:50;5.30;;;1.30;;
24631;SDS011;59977;48.782;9.190;2023-03-21T11:41:24;2.20;;;1.20;;
24631;SDS011;59977;48.782;9.190;2023-03-21T11:43:54;6.72;;;1.30;;
24631;SDS011;59977;48.782;9.190;2023-03-21T11:46:25;2.75;;;1.10;;
24631;SDS011;59977;48.782;9.190;2023-03-21T11:48:53;2.80;;;1.17;;
24631;SDS011;59977;48.782;9.190;2023-03-21T11:54:09;1.77;;;0.90;;
24631;SDS011;59977;48.782;9.190;2023-03-21T11:56:43;1.45;;;1.00;;
24631;SDS011;59977;48.782;9.190;2023-03-21T12:04:19;4.53;;;1.80;;
24631;SDS011;59977;48.782;9.190;2023-03-21T12:09:41;6.78;;;2.47;;
24631;SDS011;59977;48.782;9.190;2023-03-21T12:14:57;5.63;;;2.35;;
24631;SDS011;59977;48.782;9.190;2023-03-21T12:29:03;6.32;;;2.38;;
24631;SDS011;59977;48.782;9.190;2023-03-21T12:34:32;11.88;;;2.85;;
24631;SDS011;59977;48.782;9.190;2023-03-21T12:45:24;8.40;;;2.95;;
24631;SDS011;59977;48.782;9.190;2023-03-21T12:47:56;7.32;;;2.67;;
24631;SDS011;59977;48.782;9.190;2023-03-21T12:50:33;8.88;;;2.65;;
24631;SDS011;59977;48.782;9.190;2023-03-21T12:53:13;8.23;;;2.63;;
24631;SDS011;59977;48.782;9.190;2023-03-21T12:55:41;8.10;;;2.75;;
24631;SDS011;59977;48.782;9.190;2023-03-21T12:58:10;4.72;;;2.53;;
24631;SDS011;59977;48.782;9.190;2023-03-21T13:00:44;5.82;;;2.85;;
24631;SDS011;59977;48.782;9.190;2023-03-21T13:06:02;6.03;;;2.35;;
24631;SDS011;59977;48.782;9.190;2023-03-21T13:11:03;14.05;;;2.70;;
24631;SDS011;59977;48.782;9.190;2023-03-21T13:13:33;5.72;;;2.90;;
24631;SDS011;59977;48.782;9.190;2023-03-21T13:18:32;7.32;;;2.58;;
24631;SDS011;59977;48.782;9.190;2023-03-21T13:21:00;7.63;;;2.53;;
24631;SDS011;59977;48.782;9.190;2023-03-21T13:23:59;4.70;;;2.83;;
24631;SDS011;59977;48.782;9.190;2023-03-21T13:26:31;8.32;;;2.20;;
24631;SDS011;59977;48.782;9.190;2023-03-21T13:30:04;3.33;;;1.90;;
24631;SDS011;59977;48.782;9.190;2023-03-21T13:32:29;7.68;;;1.90;;
24631;SDS011;59977;48.782;9.190;2023-03-21T13:34:57;4.47;;;2.00;;
24631;SDS011;59977;48.782;9.190;2023-03-21T13:37:50;3.63;;;1.75;;
24631;SDS011;59977;48.782;9.190;2023-03-21T13:40:24;4.32;;;2.30;;
24631;SDS011;59977;48.782;9.190;2023-03-21T13:42:53;4.70;;;2.15;;
24631;SDS011;59977;48.782;9.190;2023-03-21T13:45:33;4.82;;;2.40;;
24631;SDS011;59977;48.782;9.190;2023-03-21T13:48:29;6.85;;;1.88;;
24631;SDS011;59977;48.782;9.190;2023-03-21T13:53:29;7.78;;;2.28;;
24631;SDS011;59977;48.782;9.190;2023-03-21T13:56:17;6.18;;;2.55;;
24631;SDS011;59977;48.782;9.190;2023-03-21T14:03:49;8.48;;;2.97;;
24631;SDS011;59977;48.782;9.190;2023-03-21T14:06:20;6.30;;;2.22;;
24631;SDS011;59977;48.782;9.190;2023-03-21T14:08:48;7.75;;;2.47;;
24631;SDS011;59977;48.782;9.190;2023-03-21T14:11:17;6.22;;;2.20;;
24631;SDS011;59977;48.782;9.190;2023-03-21T14:13:43;7.95;;;2.55;;
24631;SDS011;59977;48.782;9.190;2023-03-21T14:16:17;4.05;;;2.30;;
24631;SDS011;59977;48.782;9.190;2023-03-21T14:18:50;8.18;;;3.28;;
24631;SDS011;59977;48.782;9.190;2023-03-21T14:21:21;4.63;;;2.30;;
24631;SDS011;59977;48.782;9.190;2023-03-21T14:26:46;4.28;;;2.10;;
24631;SDS011;59977;48.782;9.190;2023-03-21T14:29:30;8.07;;;2.47;;
24631;SDS011;59977;48.782;9.190;2023-03-21T14:31:58;7.28;;;2.38;;
24631;SDS011;59977;48.782;9.190;2023-03-21T14:34:28;4.60;;;2.70;;
24631;SDS011;59977;48.782;9.190;2023-03-21T14:36:57;4.55;;;2.28;;
24631;SDS011;59977;48.782;9.190;2023-03-21T14:39:25;4.18;;;2.42;;
24631;SDS011;59977;48.782;9.190;2023-03-21T14:41:56;12.52;;;2.80;;
24631;SDS011;59977;48.782;9.190;2023-03-21T14:44:32;4.30;;;2.40;;
24631;SDS011;59977;48.782;9.190;2023-03-21T14:49:42;14.57;;;3.30;;
24631;SDS011;59977;48.782;9.190;2023-03-21T14:52:12;10.60;;;2.83;;
24631;SDS011;59977;48.782;9.190;2023-03-21T14:54:46;10.35;;;3.17;;
24631;SDS011;59977;48.782;9.190;2023-03-21T14:57:13;7.75;;;2.47;;
24631;SDS011;59977;48.782;9.190;2023-03-21T14:59:43;8.82;;;2.72;;
24631;SDS011;59977;48.782;9.190;2023-03-21T15:02:15;6.30;;;3.25;;
24631;SDS011;59977;48.782;9.190;2023-03-21T15:04:56;6.28;;;2.72;;
24631;SDS011;59977;48.782;9.190;2023-03-21T15:07:29;6.68;;;3.42;;
24631;SDS011;59977;48.782;9.190;2023-03-21T15:09:59;7.53;;;3.00;;
24631;SDS011;59977;48.782;9.190;2023-03-21T15:12:28;10.55;;;3.30;;
24631;SDS011;59977;48.782;9.190;2023-03-21T15:14:53;4.93;;;2.63;;
24631;SDS011;59977;48.782;9.190;2023-03-21T15:17:20;8.23;;;3.03;;
24631;SDS011;59977;48.782;9.190;2023-03-21T15:19:47;9.27;;;3.30;;
24631;SDS011;59977;48.782;9.190;2023-03-21T15:22:23;9.82;;;2.63;;
24631;SDS011;59977;48.782;9.190;2023-03-21T15:25:02;11.43;;;2.95;;
24631;SDS011;59977;48.782;9.190;2023-03-21T15:27:32;7.10;;;2.83;;
24631;SDS011;59977;48.782;9.190;2023-03-21T15:30:06;8.00;;;2.40;;
24631;SDS011;59977;48.782;9.190;2023-03-21T15:32:44;7.28;;;2.50;;
24631;SDS011;59977;48.782;9.190;2023-03-21T15:35:14;6.80;;;2.83;;
24631;SDS011;59977;48.782;9.190;2023-03-21T15:37:50;15.88;;;2.75;;
24631;SDS011;59977;48.782;9.190;2023-03-21T15:40:22;8.95;;;2.63;;
24631;SDS011;59977;48.782;9.190;2023-03-21T15:45:44;6.78;;;2.22;;
24631;SDS011;59977;48.782;9.190;2023-03-21T15:48:14;12.55;;;2.85;;
24631;SDS011;59977;48.782;9.190;2023-03-21T15:50:41;10.63;;;2.40;;
24631;SDS011;59977;48.782;9.190;2023-03-21T15:53:13;16.23;;;2.95;;
24631;SDS011;59977;48.782;9.190;2023-03-21T15:55:42;6.53;;;2.72;;
24631;SDS011;59977;48.782;9.190;2023-03-21T15:58:22;6.00;;;2.65;;
24631;SDS011;59977;48.782;9.190;2023-03-21T16:00:51;10.48;;;2.55;;
24631;SDS011;59977;48.782;9.190;2023-03-21T16:11:18;6.25;;;2.40;;
24631;SDS011;59977;48.782;9.190;2023-03-21T16:13:49;7.72;;;2.85;;
24631;SDS011;59977;48.782;9.190;2023-03-21T16:16:22;13.02;;;3.10;;
24631;SDS011;59977;48.782;9.190;2023-03-21T16:18:50;6.32;;;2.78;;
24631;SDS011;59977;48.782;9.190;2023-03-21T16:21:17;6.75;;;2.58;;
24631;SDS011;59977;48.782;9.190;2023-03-21T16:23:45;9.98;;;3.08;;
24631;SDS011;59977;48.782;9.190;2023-03-21T16:26:13;8.73;;;2.78;;
24631;SDS011;59977;48.782;9.190;2023-03-21T16:28:41;17.75;;;2.83;;
24631;SDS011;59977;48.782;9.190;2023-03-21T16:31:14;6.32;;;2.80;;
24631;SDS011;59977;48.782;9.190;2023-03-21T16:33:42;7.10;;;2.30;;
24631;SDS011;59977;48.782;9.190;2023-03-21T16:36:12;9.63;;;2.78;;
24631;SDS011;59977;48.782;9.190;2023-03-21T16:38:41;6.45;;;2.83;;
24631;SDS011;59977;48.782;9.190;2023-03-21T16:41:11;7.30;;;2.83;;
24631;SDS011;59977;48.782;9.190;2023-03-21T16:43:40;8.45;;;3.03;;
24631;SDS011;59977;48.782;9.190;2023-03-21T16:46:11;9.63;;;2.92;;
24631;SDS011;59977;48.782;9.190;2023-03-21T16:48:38;11.75;;;3.30;;
24631;SDS011;59977;48.782;9.190;2023-03-21T16:51:03;8.98;;;2.92;;
24631;SDS011;59977;48.782;9.190;2023-03-21T16:53:29;11.65;;;3.60;;
24631;SDS011;59977;48.782;9.190;2023-03-21T16:55:55;14.60;;;3.10;;
24631;SDS011;59977;48.782;9.190;2023-03-21T16:58:26;12.53;;;3.13;;
24631;SDS011;59977;48.782;9.190;2023-03-21T17:00:53;5.03;;;2.45;;
24631;SDS011;59977;48.782;9.190;2023-03-21T17:03:19;9.68;;;3.60;;
24631;SDS011;59977;48.782;9.190;2023-03-21T17:05:46;9.93;;;3.40;;
24631;SDS011;59977;48.782;9.190;2023-03-21T17:08:13;9.27;;;3.20;;
24631;SDS011;59977;48.782;9.190;2023-03-21T17:10:40;8.25;;;3.00;;
24631;SDS011;59977;48.782;9.190;2023-03-21T17:13:06;12.75;;;3.17;;
24631;SDS011;59977;48.782;9.190;2023-03-21T17:15:31;10.30;;;3.20;;
24631;SDS011;59977;48.782;9.190;2023-03-21T17:17:57;13.70;;;3.83;;
24631;SDS011;59977;48.782;9.190;2023-03-21T17:20:32;8.23;;;3.22;;
24631;SDS011;59977;48.782;9.190;2023-03-21T17:23:01;8.82;;;3.05;;
24631;SDS011;59977;48.782;9.190;2023-03-21T17:25:27;6.90;;;3.10;;
24631;SDS011;59977;48.782;9.190;2023-03-21T17:27:52;14.27;;;3.38;;
24631;SDS011;59977;48.782;9.190;2023-03-21T17:30:23;7.68;;;3.15;;
24631;SDS011;59977;48.782;9.190;2023-03-21T17:32:50;6.15;;;3.05;;
24631;SDS011;59977;48.782;9.190;2023-03-21T17:35:16;9.23;;;2.90;;
24631;SDS011;59977;48.782;9.190;2023-03-21T17:37:43;18.92;;;3.55;;
24631;SDS011;59977;48.782;9.190;2023-03-21T17:40:14;10.23;;;3.30;;
24631;SDS011;59977;48.782;9.190;2023-03-21T17:42:45;4.65;;;2.65;;
24631;SDS011;59977;48.782;9.190;2023-03-21T17:45:11;9.18;;;3.15;;
24631;SDS011;59977;48.782;9.190;2023-03-21T17:47:36;8.18;;;2.80;;
24631;SDS011;59977;48.782;9.190;2023-03-21T17:50:03;14.93;;;3.42;;
24631;SDS011;59977;48.782;9.190;2023-03-21T17:52:30;14.07;;;3.20;;
24631;SDS011;59977;48.782;9.190;2023-03-21T17:54:56;11.93;;;4.00;;
24631;SDS011;59977;48.782;9.190;2023-03-21T17:57:21;11.73;;;3.90;;
24631;SDS011;59977;48.782;9.190;2023-03-21T17:59:47;12.75;;;3.63;;
24631;SDS011;59977;48.782;9.190;2023-03-21T18:02:12;10.30;;;4.00;;
24631;SDS011;59977;48.782;9.190;2023-03-21T18:04:38;12.68;;;5.65;;
24631;SDS011;59977;48.782;9.190;2023-03-21T18:07:04;11.75;;;4.30;;
24631;SDS011;59977;48.782;9.190;2023-03-21T18:09:31;13.57;;;3.95;;
24631;SDS011;59977;48.782;9.190;2023-03-21T18:11:57;13.27;;;4.30;;
24631;SDS011;59977;48.782;9.190;2023-03-21T18:14:22;11.52;;;3.55;;
24631;SDS011;59977;48.782;9.190;2023-03-21T18:16:48;10.98;;;4.22;;
24631;SDS011;59977;48.782;9.190;2023-03-21T18:19:14;11.13;;;4.07;;
24631;SDS011;59977;48.782;9.190;2023-03-21T18:21:40;12.63;;;4.43;;
24631;SDS011;59977;48.782;9.190;2023-03-21T18:24:07;10.55;;;4.25;;
24631;SDS011;59977;48.782;9.190;2023-03-21T18:26:33;11.82;;;3.90;;
24631;SDS011;59977;48.782;9.190;2023-03-21T18:28:58;13.18;;;4.72;;
24631;SDS011;59977;48.782;9.190;2023-03-21T18:31:24;8.65;;;4.10;;
24631;SDS011;59977;48.782;9.190;2023-03-21T18:33:50;15.52;;;4.28;;
24631;SDS011;59977;48.782;9.190;2023-03-21T18:36:17;10.25;;;4.00;;
24631;SDS011;59977;48.782;9.190;2023-03-21T18:38:45;11.52;;;4.65;;
24631;SDS011;59977;48.782;9.190;2023-03-21T18:41:12;13.73;;;4.50;;
24631;SDS011;59977;48.782;9.190;2023-03-21T18:43:39;9.40;;;4.20;;
24631;SDS011;59977;48.782;9.190;2023-03-21T18:46:06;11.73;;;4.68;;
24631;SDS011;59977;48.782;9.190;2023-03-21T18:48:32;11.55;;;5.75;;
24631;SDS011;59977;48.782;9.190;2023-03-21T18:50:58;7.03;;;3.40;;
24631;SDS011;59977;48.782;9.190;2023-03-21T18:53:23;5.80;;;2.90;;
24631;SDS011;59977;48.782;9.190;2023-03-21T18:55:49;8.60;;;3.30;;
24631;SDS011;59977;48.782;9.190;2023-03-21T18:58:15;11.98;;;3.45;;
24631;SDS011;59977;48.782;9.190;2023-03-21T19:00:41;7.32;;;3.88;;
24631;SDS011;59977;48.782;9.190;2023-03-21T19:03:07;10.75;;;3.65;;
24631;SDS011;59977;48.782;9.190;2023-03-21T19:05:35;13.75;;;3.05;;
24631;SDS011;59977;48.782;9.190;2023-03-21T19:08:03;12.18;;;3.45;;
24631;SDS011;59977;48.782;9.190;2023-03-21T19:10:30;16.30;;;4.15;;
24631;SDS011;59977;48.782;9.190;2023-03-21T19:12:56;14.20;;;3.72;;
24631;SDS011;59977;48.782;9.190;2023-03-21T19:15:21;10.45;;;4.22;;
24631;SDS011;59977;48.782;9.190;2023-03-21T19:17:48;13.25;;;4.00;;
24631;SDS011;59977;48.782;9.190;2023-03-21T19:20:16;12.35;;;4.50;;
24631;SDS011;59977;48.782;9.190;2023-03-21T19:22:42;8.20;;;3.67;;
24631;SDS011;59977;48.782;9.190;2023-03-21T19:25:08;16.05;;;4.35;;
24631;SDS011;59977;48.782;9.190;2023-03-21T19:27:36;17.27;;;8.10;;
24631;SDS011;59977;48.782;9.190;2023-03-21T19:30:03;22.05;;;7.18;;
24631;SDS011;59977;48.782;9.190;2023-03-21T19:32:34;10.20;;;3.85;;
24631;SDS011;59977;48.782;9.190;2023-03-21T19:34:59;18.90;;;4.32;;
24631;SDS011;59977;48.782;9.190;2023-03-21T19:37:25;13.98;;;5.22;;
24631;SDS011;59977;48.782;9.190;2023-03-21T19:39:52;14.27;;;4.32;;
24631;SDS011;59977;48.782;9.190;2023-03-21T19:42:18;14.88;;;4.07;;
24631;SDS011;59977;48.782;9.190;2023-03-21T19:44:44;12.02;;;4.28;;
24631;SDS011;59977;48.782;9.190;2023-03-21T19:47:10;14.93;;;6.15;;
24631;SDS011;59977;48.782;9.190;2023-03-21T19:49:35;11.63;;;5.00;;
24631;SDS011;59977;48.782;9.190;2023-03-21T19:52:04;14.93;;;5.32;;
24631;SDS011;59977;48.782;9.190;2023-03-21T19:56:58;9.95;;;3.85;;
24631;SDS011;59977;48.782;9.190;2023-03-21T19:59:24;11.57;;;3.95;;
24631;SDS011;59977;48.782;9.190;2023-03-21T20:01:50;14.10;;;4.57;;
24631;SDS011;59977;48.782;9.190;2023-03-21T20:04:15;9.18;;;4.28;;
24631;SDS011;59977;48.782;9.190;2023-03-21T20:06:41;10.88;;;4.20;;
24631;SDS011;59977;48.782;9.190;2023-03-21T20:09:07;14.02;;;4.55;;
24631;SDS011;59977;48.782;9.190;2023-03-21T20:11:33;15.30;;;4.75;;
24631;SDS011;59977;48.782;9.190;2023-03-21T20:13:58;19.27;;;4.25;;
24631;SDS011;59977;48.782;9.190;2023-03-21T20:16:26;10.15;;;4.80;;
24631;SDS011;59977;48.782;9.190;2023-03-21T20:18:52;11.30;;;4.85;;
24631;SDS011;59977;48.782;9.190;2023-03-21T20:21:18;10.85;;;4.22;;
24631;SDS011;59977;48.782;9.190;2023-03-21T20:23:44;9.32;;;4.05;;
24631;SDS011;59977;48.782;9.190;2023-03-21T20:26:13;6.90;;;4.03;;
24631;SDS011;59977;48.782;9.190;2023-03-21T20:28:39;14.90;;;4.00;;
24631;SDS011;59977;48.782;9.190;2023-03-21T20:31:05;13.32;;;4.35;;
24631;SDS011;59977;48.782;9.190;2023-03-21T20:33:32;7.20;;;4.30;;
24631;SDS011;59977;48.782;9.190;2023-03-21T20:35:58;8.50;;;4.15;;
24631;SDS011;59977;48.782;9.190;2023-03-21T20:38:27;15.00;;;5.53;;
24631;SDS011;59977;48.782;9.190;2023-03-21T20:40:55;14.00;;;4.75;;
24631;SDS011;59977;48.782;9.190;2023-03-21T20:43:21;16.83;;;4.90;;
24631;SDS011;59977;48.782;9.190;2023-03-21T20:45:47;26.15;;;4.72;;
24631;SDS011;59977;48.782;9.190;2023-03-21T20:48:13;15.80;;;5.15;;
24631;SDS011;59977;48.782;9.190;2023-03-21T20:50:40;14.27;;;4.57;;
24631;SDS011;59977;48.782;9.190;2023-03-21T20:53:07;15.55;;;4.47;;
24631;SDS011;59977;48.782;9.190;2023-03-21T20:55:33;13.05;;;4.57;;
24631;SDS011;59977;48.782;9.190;2023-03-21T20:58:00;19.88;;;4.90;;
24631;SDS011;59977;48.782;9.190;2023-03-21T21:00:27;13.63;;;5.15;;
24631;SDS011;59977;48.782;9.190;2023-03-21T21:02:53;8.60;;;4.30;;
24631;SDS011;59977;48.782;9.190;2023-03-21T21:05:19;9.48;;;4.28;;
24631;SDS011;59977;48.782;9.190;2023-03-21T21:07:45;10.93;;;4.38;;
24631;SDS011;59977;48.782;9.190;2023-03-21T21:10:14;9.10;;;4.28;;
24631;SDS011;59977;48.782;9.190;2023-03-21T21:12:40;14.07;;;4.78;;
24631;SDS011;59977;48.782;9.190;2023-03-21T21:15:09;13.88;;;4.28;;
24631;SDS011;59977;48.782;9.190;2023-03-21T21:17:35;12.45;;;4.60;;
24631;SDS011;59977;48.782;9.190;2023-03-21T21:20:02;11.13;;;4.32;;
24631;SDS011;59977;48.782;9.190;2023-03-21T21:22:40;11.20;;;4.40;;
24631;SDS011;59977;48.782;9.190;2023-03-21T21:25:12;11.93;;;4.63;;
24631;SDS011;59977;48.782;9.190;2023-03-21T21:27:38;11.85;;;4.75;;
24631;SDS011;59977;48.782;9.190;2023-03-21T21:30:05;14.95;;;4.70;;
24631;SDS011;59977;48.782;9.190;2023-03-21T21:32:33;12.10;;;4.32;;
24631;SDS011;59977;48.782;9.190;2023-03-21T21:34:58;8.07;;;4.03;;
24631;SDS011;59977;48.782;9.190;2023-03-21T21:37:24;10.18;;;4.15;;
24631;SDS011;59977;48.782;9.190;2023-03-21T21:39:50;17.38;;;4.65;;
24631;SDS011;59977;48.782;9.190;2023-03-21T21:42:15;21.40;;;4.82;;
24631;SDS011;59977;48.782;9.190;2023-03-21T21:44:41;16.10;;;4.30;;
24631;SDS011;59977;48.782;9.190;2023-03-21T21:47:09;10.07;;;4.55;;
24631;SDS011;59977;48.782;9.190;2023-03-21T21:49:36;12.82;;;4.78;;
24631;SDS011;59977;48.782;9.190;2023-03-21T21:52:01;10.73;;;4.57;;
24631;SDS011;59977;48.782;9.190;2023-03-21T21:54:28;11.10;;;4.45;;
24631;SDS011;59977;48.782;9.190;2023-03-21T21:56:57;9.70;;;4.88;;
24631;SDS011;59977;48.782;9.190;2023-03-21T21:59:24;10.10;;;4.60;;
24631;SDS011;59977;48.782;9.190;2023-03-21T22:01:50;9.35;;;4.50;;
24631;SDS011;59977;48.782;9.190;2023-03-21T22:04:15;13.80;;;4.30;;
24631;SDS011;59977;48.782;9.190;2023-03-21T22:06:42;9.95;;;4.40;;
24631;SDS011;59977;48.782;9.190;2023-03-21T22:09:08;10.30;;;4.40;;
24631;SDS011;59977;48.782;9.190;2023-03-21T22:11:34;13.05;;;4.13;;
24631;SDS011;59977;48.782;9.190;2023-03-21T22:14:00;14.95;;;3.72;;
24631;SDS011;59977;48.782;9.190;2023-03-21T22:16:26;14.82;;;4.63;;
24631;SDS011;59977;48.782;9.190;2023-03-21T22:18:52;12.80;;;4.30;;
24631;SDS011;59977;48.782;9.190;2023-03-21T22:21:24;8.50;;;3.72;;
24631;SDS011;59977;48.782;9.190;2023-03-21T22:23:55;9.60;;;4.22;;
24631;SDS011;59977;48.782;9.190;2023-03-21T22:26:21;11.40;;;4.18;;
24631;SDS011;59977;48.782;9.190;2023-03-21T22:28:47;8.25;;;4.10;;
24631;SDS011;59977;48.782;9.190;2023-03-21T22:31:13;11.30;;;4.13;;
24631;SDS011;59977;48.782;9.190;2023-03-21T22:33:40;9.55;;;4.15;;
24631;SDS011;59977;48.782;9.190;2023-03-21T22:36:06;9.40;;;4.28;;
24631;SDS011;59977;48.782;9.190;2023-03-21T22:38:32;10.45;;;4.10;;
24631;SDS011;59977;48.782;9.190;2023-03-21T22:40:59;8.65;;;4.10;;
24631;SDS011;59977;48.782;9.190;2023-03-21T22:43:26;10.40;;;4.07;;
24631;SDS011;59977;48.782;9.190;2023-03-21T22:45:52;9.52;;;4.03;;
24631;SDS011;59977;48.782;9.190;2023-03-21T22:48:19;14.55;;;4.00;;
24631;SDS011;59977;48.782;9.190;2023-03-21T22:50:45;14.75;;;4.50;;
24631;SDS011;59977;48.782;9.190;2023-03-21T22:53:11;12.75;;;4.03;;
24631;SDS011;59977;48.782;9.190;2023-03-21T22:55:37;7.78;;;3.88;;
24631;SDS011;59977;48.782;9.190;2023-03-21T22:58:02;11.18;;;4.13;;
24631;SDS011;59977;48.782;9.190;2023-03-21T23:00:28;16.05;;;3.80;;
24631;SDS011;59977;48.782;9.190;2023-03-21T23:02:54;10.90;;;4.20;;
24631;SDS011;59977;48.782;9.190;2023-03-21T23:05:21;10.90;;;4.43;;
24631;SDS011;59977;48.782;9.190;2023-03-21T23:07:47;7.05;;;3.70;;
24631;SDS011;59977;48.782;9.190;2023-03-21T23:10:13;9.68;;;3.45;;
24631;SDS011;59977;48.782;9.190;2023-03-21T23:12:38;11.27;;;3.97;;
24631;SDS011;59977;48.782;9.190;2023-03-21T23:15:05;10.10;;;5.78;;
24631;SDS011;59977;48.782;9.190;2023-03-21T23:17:32;10.80;;;5.20;;
24631;SDS011;59977;48.782;9.190;2023-03-21T23:19:58;8.65;;;4.22;;
24631;SDS011;59977;48.782;9.190;2023-03-21T23:22:24;9.07;;;4.70;;
24631;SDS011;59977;48.782;9.190;2023-03-21T23:24:54;9.88;;;4.70;;
24631;SDS011;59977;48.782;9.190;2023-03-21T23:27:19;8.65;;;4.30;;
24631;SDS011;59977;48.782;9.190;2023-03-21T23:29:45;9.48;;;5.05;;
24631;SDS011;59977;48.782;9.190;2023-03-21T23:32:11;11.65;;;4.75;;
24631;SDS011;59977;48.782;9.190;2023-03-21T23:34:36;13.93;;;3.83;;
24631;SDS011;59977;48.782;9.190;2023-03-21T23:37:02;10.02;;;3.67;;
24631;SDS011;59977;48.782;9.190;2023-03-21T23:39:27;14.57;;;3.58;;
24631;SDS011;59977;48.782;9.190;2023-03-21T23:41:53;7.53;;;3.67;;
24631;SDS011;59977;48.782;9.190;2023-03-21T23:44:19;11.10;;;4.15;;
24631;SDS011;59977;48.782;9.190;2023-03-21T23:46:44;6.18;;;3.47;;
24631;SDS011;59977;48.782;9.190;2023-03-21T23:49:10;11.65;;;3.58;;
24631;SDS011;59977;48.782;9.190;2023-03-21T23:51:36;7.95;;;3.38;;
24631;SDS011;59977;48.782;9.190;2023-03-21T23:54:01;6.13;;;3.38;;
24631;SDS011;59977;48.782;9.190;2023-03-21T23:56:27;9.82;;;3.35;;
24631;SDS011;59977;48.782;9.190;2023-03-21T23:58:52;7.28;;;3.10;;
